Time;durP1;ratioP1;P1;durP2;ratioP2;P2;SDS_P1;SDS_P2;PMS_P1;PMS_P2;Temp;Humidity;BMP_temperature;BMP_pressure;BME280_temperature;BME280_humidity;BME280_pressure;Samples;Min_cycle;Max_cycle;Signal;HPM_P1;HPM_P2
2021/01/27 00:00:34;;;;;;;15.52;6.20;;;11.10;99.90;;;;;;5032465;28;20061;-83
2021/01/27 00:03:01;;;;;;;14.27;5.88;;;11.10;99.90;;;;;;5023854;28;20073;-83
2021/01/27 00:05:43;;;;;;;12.80;5.35;;;11.10;99.90;;;;;;5037012;28;21293;-83
2021/01/27 00:08:10;;;;;;;12.18;4.45;;;11.10;99.90;;;;;;5046094;28;20054;-83
2021/01/27 00:10:37;;;;;;;7.78;3.90;;;11.00;99.90;;;;;;5015710;28;20446;-83
2021/01/27 00:13:06;;;;;;;9.50;4.68;;;11.00;99.90;;;;;;5023746;28;20463;-83
2021/01/27 00:15:35;;;;;;;11.80;4.57;;;11.00;99.90;;;;;;5051957;28;20056;-83
2021/01/27 00:18:04;;;;;;;12.43;4.40;;;11.00;99.90;;;;;;5039727;28;20056;-83
2021/01/27 00:20:30;;;;;;;11.88;4.93;;;11.00;99.90;;;;;;5029162;28;20116;-83
2021/01/27 00:22:57;;;;;;;15.35;5.72;;;11.00;99.90;;;;;;5021203;28;20053;-83
2021/01/27 00:25:27;;;;;;;17.40;5.97;;;11.00;99.90;;;;;;5023579;28;20107;-83
2021/01/27 00:27:54;;;;;;;18.60;5.82;;;11.00;99.90;;;;;;5023670;28;20061;-83
2021/01/27 00:30:27;;;;;;;17.00;5.97;;;11.00;99.90;;;;;;5023337;28;20041;-83
2021/01/27 00:32:55;;;;;;;18.73;5.20;;;11.00;99.90;;;;;;5024843;28;20068;-83
2021/01/27 00:35:31;;;;;;;15.50;5.47;;;11.00;99.90;;;;;;5025754;28;20042;-83
2021/01/27 00:37:59;;;;;;;18.35;5.47;;;11.00;99.90;;;;;;5025846;28;20427;-83
2021/01/27 00:40:26;;;;;;;23.95;5.60;;;10.90;99.90;;;;;;5024227;28;20483;-83
2021/01/27 00:42:52;;;;;;;16.88;4.93;;;11.00;99.90;;;;;;5027680;28;20049;-83
2021/01/27 00:45:20;;;;;;;20.50;5.07;;;10.90;99.90;;;;;;5010409;28;20057;-83
2021/01/27 00:47:47;;;;;;;12.73;4.43;;;11.00;99.90;;;;;;5023891;28;20046;-83
2021/01/27 00:50:15;;;;;;;15.73;4.32;;;11.00;99.90;;;;;;5027896;28;20114;-83
2021/01/27 00:52:42;;;;;;;17.67;4.50;;;10.90;99.90;;;;;;5047666;28;20127;-83
2021/01/27 00:55:21;;;;;;;13.75;4.47;;;11.00;99.90;;;;;;5030203;28;20057;-83
2021/01/27 00:57:47;;;;;;;13.10;4.10;;;10.90;99.90;;;;;;5042630;28;20060;-83
2021/01/27 01:00:19;;;;;;;9.35;3.58;;;10.90;99.90;;;;;;5055701;28;20378;-83
2021/01/27 01:02:46;;;;;;;10.10;4.00;;;11.00;99.90;;;;;;5054735;28;20456;-83
2021/01/27 01:05:18;;;;;;;8.65;3.60;;;10.90;99.90;;;;;;5052685;28;20483;-83
2021/01/27 01:07:48;;;;;;;10.13;3.60;;;10.90;99.90;;;;;;5042180;28;20398;-83
2021/01/27 01:10:22;;;;;;;9.50;3.20;;;11.00;99.90;;;;;;5054788;28;20049;-83
2021/01/27 01:12:48;;;;;;;8.50;2.80;;;11.00;99.90;;;;;;5026382;28;20053;-83
2021/01/27 01:15:15;;;;;;;9.38;3.15;;;11.00;99.90;;;;;;5046303;28;20450;-83
2021/01/27 01:17:42;;;;;;;8.13;2.97;;;11.00;99.90;;;;;;5032225;28;20540;-83
2021/01/27 01:20:14;;;;;;;6.13;2.70;;;11.00;99.90;;;;;;5049045;28;20055;-82
2021/01/27 01:22:42;;;;;;;6.65;2.55;;;11.00;99.90;;;;;;5035351;28;20437;-83
2021/01/27 01:25:10;;;;;;;4.57;2.42;;;11.00;99.90;;;;;;5029648;28;20063;-83
2021/01/27 01:27:36;;;;;;;6.93;2.30;;;11.00;99.90;;;;;;5034685;28;20474;-83
2021/01/27 01:30:17;;;;;;;5.00;2.00;;;11.00;99.90;;;;;;5032078;28;20072;-83
2021/01/27 01:32:44;;;;;;;4.82;1.98;;;11.00;99.90;;;;;;5050282;28;20537;-83
2021/01/27 01:35:13;;;;;;;3.33;1.80;;;11.00;99.90;;;;;;5046439;28;20096;-84
2021/01/27 01:37:41;;;;;;;4.70;1.70;;;11.00;99.90;;;;;;5044902;28;20049;-83
2021/01/27 01:40:09;;;;;;;5.27;1.97;;;11.00;99.90;;;;;;5056592;28;20434;-83
2021/01/27 01:42:36;;;;;;;11.30;2.15;;;11.00;99.90;;;;;;5051370;28;20067;-83
2021/01/27 01:45:34;;;;;;;6.20;2.00;;;11.00;99.90;;;;;;5052199;28;20490;-83
2021/01/27 01:48:12;;;;;;;6.10;2.13;;;11.00;99.90;;;;;;5041824;28;20044;-83
2021/01/27 01:50:39;;;;;;;8.32;2.70;;;11.00;99.90;;;;;;5030407;28;20080;-83
2021/01/27 01:53:05;;;;;;;8.77;2.60;;;10.90;99.90;;;;;;5040228;28;20052;-83
2021/01/27 01:55:33;;;;;;;7.75;2.80;;;10.90;99.90;;;;;;5081527;28;20094;-83
2021/01/27 01:58:00;;;;;;;10.40;3.00;;;10.90;99.90;;;;;;5071552;28;20449;-82
2021/01/27 02:00:28;;;;;;;10.20;3.08;;;10.90;99.90;;;;;;5064405;28;21130;-83
2021/01/27 02:02:56;;;;;;;9.30;3.35;;;10.90;99.90;;;;;;5065738;28;20552;-83
2021/01/27 02:05:24;;;;;;;10.70;3.75;;;10.90;99.90;;;;;;5044802;28;20063;-83
2021/01/27 02:07:52;;;;;;;12.10;3.20;;;10.90;99.90;;;;;;5042584;28;20164;-83
2021/01/27 02:10:20;;;;;;;8.68;3.50;;;10.90;99.90;;;;;;5047279;28;20379;-83
2021/01/27 02:13:08;;;;;;;7.45;3.35;;;10.90;99.90;;;;;;5050609;28;20060;-83
2021/01/27 02:15:46;;;;;;;10.87;3.33;;;10.90;99.90;;;;;;5038247;28;20489;-83
2021/01/27 02:18:29;;;;;;;7.80;2.72;;;10.90;99.90;;;;;;5064599;28;20105;-83
2021/01/27 02:21:12;;;;;;;8.75;3.05;;;10.90;99.90;;;;;;5046942;28;20375;-83
2021/01/27 02:24:13;;;;;;;5.70;2.90;;;10.90;99.90;;;;;;5047673;28;20056;-82
2021/01/27 02:26:58;;;;;;;10.13;3.72;;;10.90;99.90;;;;;;4954532;28;20043;-83
2021/01/27 02:29:25;;;;;;;14.70;4.50;;;10.90;99.90;;;;;;4959225;28;20589;-83
2021/01/27 02:32:23;;;;;;;14.23;5.05;;;10.90;99.90;;;;;;4959970;28;20105;-83
2021/01/27 02:35:08;;;;;;;12.90;5.63;;;10.90;99.90;;;;;;4981000;28;20079;-83
2021/01/27 02:38:00;;;;;;;19.42;6.30;;;10.90;99.90;;;;;;4967103;28;20050;-83
2021/01/27 02:40:32;;;;;;;19.23;7.60;;;10.90;99.90;;;;;;4984466;28;20042;-83
2021/01/27 02:43:12;;;;;;;26.23;7.53;;;10.90;99.90;;;;;;4973525;28;20054;-83
2021/01/27 02:45:49;;;;;;;21.42;7.95;;;10.90;99.90;;;;;;4986909;28;20159;-83
2021/01/27 02:48:27;;;;;;;21.35;8.05;;;10.90;99.90;;;;;;4986196;28;20519;-83
2021/01/27 02:51:22;;;;;;;14.68;6.68;;;10.90;99.90;;;;;;4986030;28;20206;-83
2021/01/27 02:53:55;;;;;;;13.13;5.55;;;10.90;99.90;;;;;;4969375;28;20046;-83
2021/01/27 02:56:42;;;;;;;10.00;4.65;;;10.90;99.90;;;;;;4985938;28;20374;-83
2021/01/27 02:59:35;;;;;;;12.95;3.88;;;10.90;99.90;;;;;;4985654;28;20054;-83
2021/01/27 03:02:18;;;;;;;12.70;4.20;;;10.90;99.90;;;;;;4989134;28;20055;-83
2021/01/27 03:04:59;;;;;;;10.00;4.15;;;10.90;99.90;;;;;;5045890;28;20493;-83
2021/01/27 03:07:29;;;;;;;17.08;4.88;;;10.90;99.90;;;;;;5078535;28;20612;-83
2021/01/27 03:10:00;;;;;;;11.20;4.72;;;10.90;99.90;;;;;;5047105;28;20523;-83
2021/01/27 03:12:26;;;;;;;10.05;4.80;;;10.90;99.90;;;;;;5043004;28;20078;-82
2021/01/27 03:14:53;;;;;;;17.02;5.93;;;10.90;99.90;;;;;;5048861;28;20037;-82
2021/01/27 03:17:21;;;;;;;11.55;5.75;;;10.90;99.90;;;;;;5065175;28;20110;-83
2021/01/27 03:20:10;;;;;;;12.18;5.97;;;10.90;99.90;;;;;;5061656;28;20054;-83
2021/01/27 03:22:44;;;;;;;13.27;4.80;;;10.90;99.90;;;;;;5074312;28;20064;-82
2021/01/27 03:25:12;;;;;;;13.73;5.18;;;10.90;99.90;;;;;;5042432;28;20474;-83
2021/01/27 03:28:11;;;;;;;9.35;4.50;;;10.90;99.90;;;;;;5067818;28;20105;-83
2021/01/27 03:30:38;;;;;;;11.15;4.60;;;10.90;99.90;;;;;;5065546;28;20048;-83
2021/01/27 03:33:15;;;;;;;9.90;4.70;;;10.90;99.90;;;;;;5042052;28;20482;-82
2021/01/27 03:35:49;;;;;;;9.37;4.07;;;10.90;99.90;;;;;;5040451;28;20042;-83
2021/01/27 03:38:21;;;;;;;10.88;3.83;;;10.90;99.90;;;;;;5035463;28;20057;-83
2021/01/27 03:40:52;;;;;;;11.55;4.05;;;10.90;99.90;;;;;;5075290;28;20041;-83
2021/01/27 03:43:28;;;;;;;13.05;3.92;;;10.90;99.90;;;;;;5057063;28;20087;-83
2021/01/27 03:46:05;;;;;;;9.70;3.53;;;10.90;99.90;;;;;;5046461;28;20079;-83
2021/01/27 03:48:42;;;;;;;7.78;3.08;;;10.90;99.90;;;;;;5060332;28;20478;-83
2021/01/27 03:51:13;;;;;;;11.00;3.63;;;10.90;99.90;;;;;;5063154;28;20041;-83
2021/01/27 03:53:40;;;;;;;11.27;3.88;;;10.90;99.90;;;;;;5066373;28;20048;-83
2021/01/27 03:56:11;;;;;;;8.50;3.10;;;10.90;99.90;;;;;;5041109;28;20081;-82
2021/01/27 03:58:41;;;;;;;8.68;3.50;;;10.90;99.90;;;;;;5051327;28;20044;-83
2021/01/27 04:01:17;;;;;;;7.55;3.03;;;10.90;99.90;;;;;;5065544;28;20044;-83
2021/01/27 04:03:46;;;;;;;6.97;3.35;;;10.90;99.90;;;;;;5061020;28;20040;-83
2021/01/27 04:06:13;;;;;;;4.32;2.35;;;10.90;99.90;;;;;;5040433;28;20049;-83
2021/01/27 04:08:39;;;;;;;4.65;2.28;;;10.90;99.90;;;;;;5047778;28;20308;-82
2021/01/27 04:11:06;;;;;;;4.20;2.53;;;10.90;99.90;;;;;;5067620;28;20091;-82
2021/01/27 04:13:33;;;;;;;3.42;2.10;;;10.90;99.90;;;;;;5052259;28;20502;-83
2021/01/27 04:15:59;;;;;;;4.45;2.00;;;10.90;99.90;;;;;;5047026;28;20048;-83
2021/01/27 04:18:27;;;;;;;3.75;1.88;;;10.90;99.90;;;;;;5053799;28;20075;-83
2021/01/27 04:20:54;;;;;;;4.87;1.80;;;10.90;99.90;;;;;;5042606;28;20636;-82
2021/01/27 04:23:21;;;;;;;4.80;1.73;;;10.90;99.90;;;;;;5055847;28;20045;-83
2021/01/27 04:25:47;;;;;;;3.13;1.30;;;10.90;99.90;;;;;;5048574;28;20072;-83
2021/01/27 04:28:14;;;;;;;4.05;1.60;;;10.90;99.90;;;;;;5029740;28;20041;-83
2021/01/27 04:30:41;;;;;;;2.75;1.48;;;10.90;99.90;;;;;;5066671;28;20071;-83
2021/01/27 04:33:10;;;;;;;2.83;1.30;;;10.90;99.90;;;;;;5065306;28;20063;-83
2021/01/27 04:35:37;;;;;;;2.58;1.40;;;10.90;99.90;;;;;;5041532;28;20076;-83
2021/01/27 04:38:05;;;;;;;1.98;0.90;;;10.90;99.90;;;;;;5024682;28;20111;-83
2021/01/27 04:40:35;;;;;;;3.30;0.70;;;10.90;99.90;;;;;;5053859;28;20102;-83
2021/01/27 04:43:04;;;;;;;2.35;0.55;;;10.80;99.90;;;;;;5041088;28;20076;-82
2021/01/27 04:45:31;;;;;;;1.98;0.60;;;10.80;99.90;;;;;;5062876;28;20044;-83
2021/01/27 04:48:01;;;;;;;4.50;1.20;;;10.80;99.90;;;;;;5039130;28;20041;-83
2021/01/27 04:50:42;;;;;;;4.28;1.23;;;10.80;99.90;;;;;;5058444;28;20457;-83
2021/01/27 04:53:43;;;;;;;2.53;0.90;;;10.80;99.90;;;;;;5069466;28;20070;-82
2021/01/27 04:56:09;;;;;;;5.60;1.38;;;10.80;99.90;;;;;;5069249;28;20044;-83
2021/01/27 04:58:39;;;;;;;6.43;1.30;;;10.80;99.90;;;;;;5049311;28;20055;-83
2021/01/27 05:01:08;;;;;;;5.47;1.02;;;10.80;99.90;;;;;;5031338;28;20409;-83
2021/01/27 05:04:11;;;;;;;5.30;1.15;;;10.80;99.90;;;;;;5051523;28;20076;-83
2021/01/27 05:06:42;;;;;;;5.03;0.90;;;10.70;99.90;;;;;;5053096;28;20052;-83
2021/01/27 05:09:32;;;;;;;4.72;1.02;;;10.70;99.90;;;;;;5062105;28;20169;-83
2021/01/27 05:12:02;;;;;;;5.47;1.30;;;10.70;99.90;;;;;;5048384;28;20371;-83
2021/01/27 05:14:30;;;;;;;4.90;1.55;;;10.70;99.90;;;;;;5064115;28;20049;-82
2021/01/27 05:16:58;;;;;;;5.57;1.20;;;10.70;99.90;;;;;;5068696;28;20497;-83
2021/01/27 05:19:25;;;;;;;5.55;1.38;;;10.70;99.90;;;;;;5048184;28;20055;-83
2021/01/27 05:21:55;;;;;;;7.75;1.40;;;10.70;99.90;;;;;;5065926;28;20052;-83
2021/01/27 05:24:21;;;;;;;7.25;1.50;;;10.70;99.90;;;;;;5063456;28;20051;-83
2021/01/27 05:27:29;;;;;;;5.35;1.20;;;10.70;99.90;;;;;;5052280;28;20114;-83
2021/01/27 05:30:07;;;;;;;6.88;1.42;;;10.70;99.90;;;;;;4952566;28;20105;-83
2021/01/27 05:32:55;;;;;;;3.45;1.05;;;10.70;99.90;;;;;;4976300;28;20059;-83
2021/01/27 05:35:29;;;;;;;4.93;0.98;;;10.70;99.90;;;;;;4988879;28;20058;-83
2021/01/27 05:37:58;;;;;;;5.72;2.92;;;10.70;99.90;;;;;;4969856;28;20109;-83
2021/01/27 05:40:34;;;;;;;4.15;1.00;;;10.70;99.90;;;;;;4997254;28;20049;-83
2021/01/27 05:43:21;;;;;;;4.97;1.25;;;10.70;99.90;;;;;;4975054;28;20101;-82
2021/01/27 05:45:51;;;;;;;3.30;1.60;;;10.70;99.90;;;;;;4986147;28;20059;-83
2021/01/27 05:48:26;;;;;;;6.50;1.20;;;10.70;99.90;;;;;;4972665;28;20503;-83
2021/01/27 05:51:02;;;;;;;4.85;1.25;;;10.60;99.90;;;;;;4982940;28;20583;-83
2021/01/27 05:53:31;;;;;;;5.75;1.40;;;10.70;99.90;;;;;;4969992;28;20101;-83
2021/01/27 05:56:24;;;;;;;10.30;2.13;;;10.70;99.90;;;;;;4969818;28;20051;-82
2021/01/27 05:59:07;;;;;;;9.07;2.15;;;10.70;99.90;;;;;;4953751;28;20063;-83
2021/01/27 06:01:42;;;;;;;8.25;2.35;;;10.70;99.90;;;;;;4970338;28;20484;-82
2021/01/27 06:04:12;;;;;;;9.57;2.55;;;10.70;99.90;;;;;;4983029;28;20069;-83
2021/01/27 06:06:47;;;;;;;;;;;10.70;99.90;;;;;;5043464;28;20099;-83
2021/01/27 06:09:14;;;;;;;20.73;3.90;;;10.60;99.90;;;;;;5046208;28;19974;-83
2021/01/27 06:11:42;;;;;;;12.70;3.70;;;10.70;99.90;;;;;;5024724;28;20059;-83
2021/01/27 06:14:17;;;;;;;16.48;3.30;;;10.70;99.90;;;;;;5034068;28;20037;-83
2021/01/27 06:16:46;;;;;;;11.75;3.42;;;10.70;99.90;;;;;;5047100;28;20076;-83
2021/01/27 06:19:17;;;;;;;16.58;3.42;;;10.70;99.90;;;;;;5048849;28;20075;-81
2021/01/27 06:22:17;;;;;;;18.80;3.65;;;10.70;99.90;;;;;;5049103;28;20068;-83
2021/01/27 06:24:49;;;;;;;22.70;4.55;;;10.70;99.90;;;;;;5063794;28;20144;-83
2021/01/27 06:27:24;;;;;;;16.60;4.18;;;10.70;99.90;;;;;;5047735;28;20049;-83
2021/01/27 06:30:15;;;;;;;15.73;3.58;;;10.70;99.90;;;;;;5064403;28;20045;-83
2021/01/27 06:33:18;;;;;;;24.38;3.75;;;10.70;99.90;;;;;;5027859;28;20054;-83
2021/01/27 06:36:00;;;;;;;20.70;4.18;;;10.70;99.90;;;;;;5053806;28;20127;-83
2021/01/27 06:38:54;;;;;;;16.33;3.55;;;10.70;99.90;;;;;;5037754;28;20049;-83
2021/01/27 06:41:34;;;;;;;20.58;3.95;;;10.70;99.90;;;;;;5029926;28;20060;-82
2021/01/27 06:44:10;;;;;;;21.17;4.00;;;10.70;99.90;;;;;;5068121;28;20434;-83
2021/01/27 06:46:59;;;;;;;17.05;4.25;;;10.60;99.90;;;;;;5067840;28;20051;-83
2021/01/27 06:49:44;;;;;;;20.38;4.53;;;10.60;99.90;;;;;;5062598;28;20055;-82
2021/01/27 06:52:10;;;;;;;29.40;5.68;;;10.60;99.90;;;;;;5049693;28;20060;-82
2021/01/27 06:55:14;;;;;;;23.75;4.22;;;10.60;99.90;;;;;;5042964;28;20044;-82
2021/01/27 06:57:59;;;;;;;18.23;3.65;;;10.60;99.90;;;;;;5045925;28;20056;-82
2021/01/27 07:00:53;;;;;;;21.58;3.38;;;10.60;99.90;;;;;;5053201;28;20049;-82
2021/01/27 07:03:41;;;;;;;18.42;3.55;;;10.60;99.90;;;;;;5021409;28;20480;-82
2021/01/27 07:06:41;;;;;;;25.42;3.22;;;10.50;99.90;;;;;;5039246;28;20057;-81
2021/01/27 07:09:22;;;;;;;15.60;3.40;;;10.50;99.90;;;;;;5035245;28;20041;-82
2021/01/27 07:12:16;;;;;;;17.27;3.30;;;10.50;99.90;;;;;;5042533;28;20111;-82
2021/01/27 07:14:48;;;;;;;16.58;3.75;;;10.50;99.90;;;;;;5021462;28;20443;-81
2021/01/27 07:17:31;;;;;;;15.90;3.22;;;10.50;99.90;;;;;;5025410;28;20049;-82
2021/01/27 07:20:15;;;;;;;15.30;3.00;;;10.50;99.90;;;;;;5030854;28;20346;-82
2021/01/27 07:22:55;;;;;;;17.17;3.28;;;10.50;99.90;;;;;;5023961;28;20072;-82
2021/01/27 07:25:46;;;;;;;16.58;3.67;;;10.50;99.90;;;;;;5027850;28;20048;-82
2021/01/27 07:28:35;;;;;;;13.90;3.55;;;10.50;99.90;;;;;;5023581;28;20061;-82
2021/01/27 07:31:14;;;;;;;19.42;3.88;;;10.50;99.90;;;;;;5035554;28;20042;-82
2021/01/27 07:33:47;;;;;;;19.08;3.53;;;10.50;99.90;;;;;;5046423;28;20431;-82
2021/01/27 07:36:21;;;;;;;16.63;3.30;;;10.50;99.90;;;;;;5027148;28;20045;-82
2021/01/27 07:38:50;;;;;;;10.15;3.50;;;10.50;99.90;;;;;;5030452;28;20042;-82
2021/01/27 07:41:25;;;;;;;22.52;3.80;;;10.50;99.90;;;;;;5036765;28;20434;-82
2021/01/27 07:44:01;;;;;;;18.40;3.13;;;10.50;99.90;;;;;;5050264;28;20068;-82
2021/01/27 07:46:37;;;;;;;21.55;2.90;;;10.50;99.90;;;;;;5037556;28;20080;-82
2021/01/27 07:49:06;;;;;;;20.02;2.92;;;10.60;99.90;;;;;;5027534;28;20387;-79
2021/01/27 07:51:50;;;;;;;13.50;2.85;;;10.60;99.90;;;;;;5028922;28;20123;-81
2021/01/27 07:54:38;;;;;;;26.13;3.65;;;10.60;99.90;;;;;;5040864;28;20376;-84
2021/01/27 07:57:16;;;;;;;;;;;10.60;99.90;;;;;;5036044;28;20064;-82
2021/01/27 07:59:46;;;;;;;;;;;10.60;99.90;;;;;;5043231;28;20362;-82
2021/01/27 08:02:21;;;;;;;22.80;3.85;;;10.60;99.90;;;;;;5038744;28;19933;-82
2021/01/27 08:04:55;;;;;;;19.10;3.67;;;10.60;99.90;;;;;;5031218;28;20044;-82
2021/01/27 08:07:39;;;;;;;27.13;4.00;;;10.60;99.90;;;;;;5029653;28;20041;-82
2021/01/27 08:10:12;;;;;;;29.38;3.90;;;10.60;99.90;;;;;;5020857;28;20058;-82
2021/01/27 08:12:42;;;;;;;30.77;3.90;;;10.60;99.90;;;;;;5029675;28;20075;-82
2021/01/27 08:15:35;;;;;;;29.02;4.05;;;10.70;99.90;;;;;;5029088;28;20379;-82
2021/01/27 08:18:15;;;;;;;36.90;3.63;;;10.70;99.90;;;;;;5022635;28;20095;-82
2021/01/27 08:20:46;;;;;;;54.35;4.82;;;10.70;99.90;;;;;;5028489;28;20037;-82
2021/01/27 08:23:22;;;;;;;55.00;4.70;;;10.70;99.90;;;;;;5027795;28;20107;-81
2021/01/27 08:26:04;;;;;;;74.80;4.20;;;10.80;99.90;;;;;;5039409;28;20424;-82
2021/01/27 08:28:37;;;;;;;83.53;4.95;;;10.80;99.90;;;;;;5022207;28;20057;-82
2021/01/27 08:31:09;;;;;;;141.07;5.35;;;10.80;99.90;;;;;;5019765;28;20368;-83
2021/01/27 08:33:48;;;;;;;180.75;6.50;;;10.80;99.90;;;;;;5046139;28;20056;-82
2021/01/27 08:36:30;;;;;;;206.70;6.50;;;10.80;99.90;;;;;;5027564;28;20044;-82
2021/01/27 08:38:57;;;;;;;200.48;6.13;;;10.90;99.90;;;;;;5021149;28;20291;-81
2021/01/27 08:41:50;;;;;;;141.15;5.13;;;10.90;99.90;;;;;;5025747;28;20297;-81
2021/01/27 08:44:20;;;;;;;89.13;3.63;;;10.90;99.90;;;;;;5044641;28;20044;-82
2021/01/27 08:46:56;;;;;;;63.55;3.30;;;10.90;99.90;;;;;;5051495;28;20561;-82
2021/01/27 08:49:49;;;;;;;49.67;2.95;;;11.00;99.90;;;;;;5046548;28;20068;-81
2021/01/27 08:52:16;;;;;;;60.53;3.63;;;11.00;99.90;;;;;;5027466;28;20053;-82
2021/01/27 08:54:47;;;;;;;24.60;2.83;;;11.00;99.90;;;;;;5007691;28;20675;-81
2021/01/27 08:57:33;;;;;;;20.52;2.40;;;11.10;99.90;;;;;;5029943;28;20057;-82
2021/01/27 09:00:07;;;;;;;13.40;2.10;;;11.10;99.90;;;;;;5046173;28;20052;-82
2021/01/27 09:03:00;;;;;;;12.95;1.90;;;11.10;99.90;;;;;;5034470;28;20037;-82
2021/01/27 09:05:27;;;;;;;11.48;2.00;;;11.10;99.90;;;;;;5052518;28;20073;-82
2021/01/27 09:07:58;;;;;;;15.40;1.83;;;11.10;99.90;;;;;;5039208;28;20037;-82
2021/01/27 09:10:28;;;;;;;23.30;1.55;;;11.10;99.90;;;;;;5029039;28;20430;-82
2021/01/27 09:12:55;;;;;;;25.88;1.67;;;11.10;99.90;;;;;;5053132;28;20070;-82
2021/01/27 09:15:34;;;;;;;47.08;2.30;;;11.10;99.90;;;;;;5036375;28;20037;-82
2021/01/27 09:18:03;;;;;;;33.08;1.98;;;11.10;99.90;;;;;;5021754;28;20581;-82
2021/01/27 09:20:31;;;;;;;32.25;1.80;;;11.10;99.90;;;;;;5019165;28;20128;-81
2021/01/27 09:23:04;;;;;;;22.63;1.50;;;11.20;99.90;;;;;;5048036;28;20081;-81
2021/01/27 09:25:44;;;;;;;18.15;1.40;;;11.20;99.90;;;;;;5047849;28;20073;-82
2021/01/27 09:28:11;;;;;;;20.67;1.60;;;11.20;99.90;;;;;;5025647;28;20397;-82
2021/01/27 09:30:39;;;;;;;63.22;2.50;;;11.20;99.90;;;;;;5046806;28;20045;-82
2021/01/27 09:33:16;;;;;;;65.40;2.25;;;11.20;99.90;;;;;;5044765;28;20065;-82
2021/01/27 09:35:46;;;;;;;90.22;2.55;;;11.20;99.90;;;;;;5061563;28;20049;-82
2021/01/27 09:38:21;;;;;;;94.35;3.42;;;11.20;99.90;;;;;;5028521;28;20102;-82
2021/01/27 09:40:51;;;;;;;106.32;3.47;;;11.30;99.90;;;;;;5034151;28;20052;-82
2021/01/27 09:43:22;;;;;;;94.72;3.38;;;11.30;99.90;;;;;;5038179;28;20094;-82
2021/01/27 09:45:51;;;;;;;114.22;3.55;;;11.30;99.90;;;;;;5051698;28;20063;-81
2021/01/27 09:48:20;;;;;;;85.93;2.75;;;11.30;99.90;;;;;;5054582;28;20045;-82
2021/01/27 09:50:55;;;;;;;116.13;3.25;;;11.30;99.90;;;;;;5065505;28;20385;-81
2021/01/27 09:53:34;;;;;;;86.72;2.67;;;11.40;99.90;;;;;;5067053;28;20060;-82
2021/01/27 09:56:01;;;;;;;86.90;2.78;;;11.30;99.90;;;;;;5065656;28;20032;-82
2021/01/27 09:58:29;;;;;;;95.68;2.75;;;11.30;99.90;;;;;;5074862;28;20036;-82
2021/01/27 10:01:05;;;;;;;77.82;2.90;;;11.40;99.90;;;;;;5075370;28;20047;-82
2021/01/27 10:03:41;;;;;;;72.05;2.22;;;11.40;99.90;;;;;;5063195;28;20045;-81
2021/01/27 10:06:46;;;;;;;64.30;2.13;;;11.40;99.90;;;;;;5051362;28;20441;-82
2021/01/27 10:09:24;;;;;;;76.10;2.92;;;11.40;99.90;;;;;;5058176;28;20044;-81
2021/01/27 10:12:02;;;;;;;87.03;3.03;;;11.40;99.90;;;;;;5062686;28;20114;-82
2021/01/27 10:14:32;;;;;;;56.47;2.53;;;11.40;99.90;;;;;;5072539;28;20303;-81
2021/01/27 10:17:01;;;;;;;90.55;3.08;;;11.50;99.90;;;;;;5068454;28;20474;-81
2021/01/27 10:19:42;;;;;;;112.38;4.05;;;11.50;99.90;;;;;;5066576;28;20492;-82
2021/01/27 10:22:11;;;;;;;89.95;3.63;;;11.40;99.90;;;;;;5042519;28;20063;-81
2021/01/27 10:24:44;;;;;;;;;;;11.50;99.90;;;;;;5065656;28;20386;-81
2021/01/27 10:27:21;;;;;;;60.92;2.25;;;11.40;99.90;;;;;;5048175;28;19928;-82
2021/01/27 10:29:50;;;;;;;66.10;2.63;;;11.40;99.90;;;;;;5071090;28;20045;-82
2021/01/27 10:32:33;;;;;;;73.38;2.40;;;11.50;99.90;;;;;;5063297;28;20126;-82
2021/01/27 10:35:01;;;;;;;39.65;1.70;;;11.50;99.90;;;;;;5048587;28;20048;-82
2021/01/27 10:37:46;;;;;;;58.05;2.90;;;11.50;99.90;;;;;;5062927;28;20044;-82
2021/01/27 10:40:27;;;;;;;40.25;1.77;;;11.50;99.90;;;;;;5040998;28;20052;-82
2021/01/27 10:43:00;;;;;;;24.95;1.30;;;11.50;99.90;;;;;;5051479;28;20056;-82
2021/01/27 10:45:27;;;;;;;23.10;1.23;;;11.50;99.90;;;;;;5037680;28;20049;-82
2021/01/27 10:48:12;;;;;;;37.70;1.95;;;11.60;99.90;;;;;;5053362;28;20044;-82
2021/01/27 10:50:46;;;;;;;22.27;1.40;;;11.60;99.90;;;;;;5059580;28;20624;-82
2021/01/27 10:53:29;;;;;;;22.67;1.30;;;11.60;99.90;;;;;;5064341;28;20045;-82
2021/01/27 10:55:56;;;;;;;17.48;0.70;;;11.60;99.90;;;;;;5065134;28;20045;-82
2021/01/27 10:58:24;;;;;;;4.50;0.60;;;11.70;99.90;;;;;;5073892;28;20048;-82
2021/01/27 11:00:50;;;;;;;1.42;0.50;;;11.60;99.90;;;;;;5065428;28;20060;-82
2021/01/27 11:03:17;;;;;;;4.50;0.50;;;11.70;99.90;;;;;;5069198;28;20094;-82
2021/01/27 11:05:46;;;;;;;5.28;0.50;;;11.70;99.90;;;;;;5050388;28;20055;-82
2021/01/27 11:08:33;;;;;;;2.40;0.80;;;11.70;99.90;;;;;;5046299;28;20700;-82
2021/01/27 11:11:02;;;;;;;3.53;0.35;;;11.80;99.90;;;;;;5041489;28;20056;-82
2021/01/27 11:13:31;;;;;;;2.17;0.30;;;11.80;99.90;;;;;;5048369;28;20049;-82
2021/01/27 11:15:59;;;;;;;1.25;0.50;;;11.80;99.90;;;;;;5063112;28;20053;-82
2021/01/27 11:18:26;;;;;;;1.77;0.50;;;11.80;99.90;;;;;;5045292;28;20106;-82
2021/01/27 11:20:53;;;;;;;3.13;0.60;;;11.90;99.90;;;;;;5062147;28;20691;-82
2021/01/27 11:23:21;;;;;;;7.70;1.88;;;11.80;99.90;;;;;;5062836;28;20064;-82
2021/01/27 11:25:49;;;;;;;3.67;1.73;;;11.80;99.90;;;;;;5041784;28;20416;-82
2021/01/27 11:28:16;;;;;;;1.55;0.40;;;11.90;99.90;;;;;;5046755;28;20462;-82
2021/01/27 11:30:43;;;;;;;0.95;0.60;;;11.90;99.90;;;;;;5064263;28;20466;-82
2021/01/27 11:33:10;;;;;;;1.58;0.52;;;11.80;99.90;;;;;;5044998;28;20040;-82
2021/01/27 11:35:38;;;;;;;3.37;3.07;;;11.90;99.90;;;;;;5063446;28;20052;-82
2021/01/27 11:38:04;;;;;;;3.05;2.17;;;11.90;99.90;;;;;;5046683;28;20094;-82
2021/01/27 11:40:31;;;;;;;0.40;0.40;;;11.90;99.90;;;;;;5061734;28;20056;-82
2021/01/27 11:42:57;;;;;;;2.03;1.40;;;11.90;99.90;;;;;;5064007;28;20063;-82
2021/01/27 11:45:24;;;;;;;0.85;0.60;;;11.90;99.90;;;;;;5060729;28;20040;-82
2021/01/27 11:47:51;;;;;;;2.03;1.42;;;12.00;99.90;;;;;;5061955;28;20101;-82
2021/01/27 11:50:23;;;;;;;1.75;1.35;;;12.00;99.90;;;;;;5042012;28;20038;-82
2021/01/27 11:52:50;;;;;;;2.58;0.57;;;12.00;99.90;;;;;;5037907;28;20065;-82
2021/01/27 11:55:19;;;;;;;2.88;0.50;;;12.00;99.90;;;;;;5059209;28;20045;-84
2021/01/27 11:57:46;;;;;;;1.17;0.60;;;12.00;99.90;;;;;;5044306;28;20102;-82
2021/01/27 12:00:15;;;;;;;1.33;0.40;;;12.00;99.90;;;;;;5027359;28;20056;-82
2021/01/27 12:02:41;;;;;;;0.45;0.43;;;12.10;99.90;;;;;;5040816;28;20239;-81
2021/01/27 12:05:09;;;;;;;1.77;0.40;;;12.10;99.90;;;;;;5039272;28;20064;-81
2021/01/27 12:07:36;;;;;;;2.17;0.40;;;12.10;99.90;;;;;;5024872;28;20045;-82
2021/01/27 12:10:03;;;;;;;2.92;0.45;;;12.10;99.90;;;;;;5022523;28;20057;-82
2021/01/27 12:12:30;;;;;;;0.47;0.47;;;12.10;99.90;;;;;;5047101;28;20064;-81
2021/01/27 12:14:56;;;;;;;0.30;0.30;;;12.10;99.90;;;;;;5044865;28;20438;-81
2021/01/27 12:17:23;;;;;;;0.30;0.30;;;12.10;99.90;;;;;;5046050;28;20052;-81
2021/01/27 12:19:49;;;;;;;0.45;0.20;;;12.10;99.90;;;;;;5043119;28;20084;-82
2021/01/27 12:22:16;;;;;;;0.20;0.20;;;12.10;99.90;;;;;;5045345;28;20126;-82
2021/01/27 12:24:46;;;;;;;2.03;0.40;;;12.20;99.90;;;;;;5046989;28;20095;-82
2021/01/27 12:27:13;;;;;;;0.85;0.40;;;12.20;99.90;;;;;;5044111;28;20041;-81
2021/01/27 12:29:40;;;;;;;1.35;0.60;;;12.20;99.90;;;;;;5041154;28;20064;-81
2021/01/27 12:32:06;;;;;;;0.85;0.50;;;12.20;99.90;;;;;;5037226;28;20386;-81
2021/01/27 12:34:33;;;;;;;1.10;1.00;;;12.20;99.90;;;;;;5077066;28;20041;-82
2021/01/27 12:37:01;;;;;;;0.30;0.30;;;12.20;99.90;;;;;;5040185;28;20114;-82
2021/01/27 12:39:28;;;;;;;1.42;0.50;;;12.20;99.90;;;;;;5052078;28;20056;-82
2021/01/27 12:41:55;;;;;;;1.50;0.47;;;12.30;99.90;;;;;;5043384;28;20045;-82
2021/01/27 12:44:40;;;;;;;0.28;0.20;;;12.30;99.90;;;;;;5048257;28;20120;-82
2021/01/27 12:47:07;;;;;;;5.07;0.47;;;12.40;99.90;;;;;;5046211;28;20076;-81
2021/01/27 12:49:34;;;;;;;1.83;0.50;;;12.40;99.90;;;;;;5063496;28;20052;-82
2021/01/27 12:52:00;;;;;;;3.10;0.70;;;12.50;99.90;;;;;;5061918;28;20057;-82
2021/01/27 12:54:26;;;;;;;10.45;0.90;;;12.50;99.90;;;;;;5047386;28;20459;-82
2021/01/27 12:56:53;;;;;;;6.00;1.00;;;12.50;99.90;;;;;;5046824;28;20048;-81
2021/01/27 12:59:19;;;;;;;4.80;1.27;;;12.50;99.90;;;;;;5049142;28;20111;-82
2021/01/27 13:01:46;;;;;;;9.02;1.33;;;12.50;99.90;;;;;;5039130;28;20052;-82
2021/01/27 13:04:12;;;;;;;16.92;1.60;;;12.50;99.90;;;;;;5046857;28;20103;-82
2021/01/27 13:06:39;;;;;;;5.00;1.33;;;12.50;99.90;;;;;;5047969;28;20052;-82
2021/01/27 13:09:05;;;;;;;21.65;1.73;;;12.50;99.90;;;;;;5079069;28;20041;-83
2021/01/27 13:11:32;;;;;;;8.48;1.55;;;12.50;99.90;;;;;;5045797;28;20438;-81
2021/01/27 13:13:58;;;;;;;6.03;1.67;;;12.50;99.90;;;;;;5047654;28;20067;-81
2021/01/27 13:16:26;;;;;;;7.22;1.35;;;12.40;99.90;;;;;;5046082;28;20053;-81